createdAt,value
2018-08-25T00:00:03.833Z,62.29
2018-08-25T00:01:03.832Z,62.10
2018-08-25T00:02:24.885Z,62.19
2018-08-25T00:03:03.891Z,62.10
2018-08-25T00:04:03.901Z,62.45
2018-08-25T00:05:03.925Z,62.16
2018-08-25T00:06:04.002Z,62.93
2018-08-25T00:07:03.988Z,62.48
2018-08-25T00:08:25.001Z,62.19
2018-08-25T00:09:04.027Z,62.64
2018-08-25T00:10:04.035Z,62.64
2018-08-25T00:11:04.063Z,62.38
2018-08-25T00:12:04.081Z,61.61
2018-08-25T00:13:04.104Z,61.33
2018-08-25T00:14:25.143Z,62.19
2018-08-25T00:15:04.143Z,62.19
2018-08-25T00:16:04.172Z,61.61
2018-08-25T00:17:04.197Z,61.91
2018-08-25T00:18:04.217Z,61.33
2018-08-25T00:19:04.353Z,62.10
2018-08-25T00:20:25.264Z,62.19
2018-08-25T00:21:04.273Z,62.10
2018-08-25T00:22:04.292Z,62.77
2018-08-25T00:23:04.360Z,63.02
2018-08-25T00:24:04.348Z,63.15
2018-08-25T00:25:04.370Z,62.58
2018-08-25T00:26:25.396Z,62.96
2018-08-25T00:27:04.401Z,63.45
2018-08-25T00:28:04.423Z,63.64
2018-08-25T00:29:04.446Z,63.73
2018-08-25T00:30:04.474Z,63.25
2018-08-25T00:31:04.482Z,63.60
2018-08-25T00:32:25.537Z,63.79
2018-08-25T00:33:04.531Z,64.47
2018-08-25T00:34:04.561Z,64.18
2018-08-25T00:35:04.576Z,63.35
2018-08-25T00:36:04.603Z,64.60
2018-08-25T00:37:04.622Z,64.76
2018-08-25T00:38:25.653Z,64.95
2018-08-25T00:39:04.657Z,64.95
2018-08-25T00:40:04.679Z,65.23
2018-08-25T00:41:04.714Z,65.14
2018-08-25T00:42:04.744Z,65.14
2018-08-25T00:43:04.775Z,64.76
2018-08-25T00:44:25.790Z,64.85
2018-08-25T00:45:04.783Z,64.66
2018-08-25T00:46:04.813Z,64.76
2018-08-25T00:47:04.904Z,64.85
2018-08-25T00:48:04.849Z,64.66
2018-08-25T00:49:04.872Z,64.56
2018-08-25T00:50:25.928Z,65.05
2018-08-25T00:51:04.928Z,65.33
2018-08-25T00:52:04.952Z,65.33
2018-08-25T00:53:04.960Z,65.08
2018-08-25T00:54:05.007Z,65.43
2018-08-25T00:55:05.004Z,65.23
2018-08-25T00:56:26.040Z,65.14
2018-08-25T00:57:05.054Z,65.43
2018-08-25T00:58:05.158Z,65.23
2018-08-25T00:59:05.113Z,64.85
2018-08-25T01:00:05.109Z,66.10
2018-08-25T01:01:05.142Z,65.91
2018-08-25T01:02:26.179Z,65.43
2018-08-25T01:03:05.171Z,65.62
2018-08-25T01:04:05.198Z,66.07
2018-08-25T01:05:06.198Z,65.81
2018-08-25T01:06:06.163Z,65.23
2018-08-25T01:07:05.277Z,65.23
2018-08-25T01:08:26.302Z,64.56
2018-08-25T01:09:05.302Z,64.69
2018-08-25T01:10:05.326Z,64.12
2018-08-25T01:11:05.411Z,64.85
2018-08-25T01:12:05.363Z,65.53
2018-08-25T01:13:08.074Z,65.43
2018-08-25T01:14:27.154Z,66.10
2018-08-25T01:15:05.474Z,65.33
2018-08-25T01:16:05.466Z,65.43
2018-08-25T01:17:05.475Z,65.17
2018-08-25T01:18:06.152Z,65.17
2018-08-25T01:19:05.532Z,64.98
2018-08-25T01:20:26.569Z,64.98
2018-08-25T01:21:05.564Z,65.37
2018-08-25T01:22:05.712Z,65.08
2018-08-25T01:23:05.601Z,65.81
2018-08-25T01:24:05.644Z,65.17
2018-08-25T01:25:05.651Z,65.27
2018-08-25T01:26:26.719Z,65.56
2018-08-25T01:27:05.699Z,65.17
2018-08-25T01:28:05.720Z,66.04
2018-08-25T01:29:05.731Z,65.56
2018-08-25T01:30:05.773Z,66.10
2018-08-25T01:31:05.779Z,66.39
2018-08-25T01:32:26.834Z,66.52
2018-08-25T01:33:05.949Z,66.33
2018-08-25T01:34:05.847Z,66.04
2018-08-25T01:35:05.874Z,66.14
2018-08-25T01:36:05.901Z,66.23
2018-08-25T01:37:05.910Z,65.84
2018-08-25T01:38:26.955Z,66.20
2018-08-25T01:39:05.953Z,66.23
2018-08-25T01:40:05.980Z,67.74
2018-08-25T01:41:05.992Z,67.93
2018-08-25T01:42:06.015Z,68.31
2018-08-25T01:43:06.048Z,68.70
2018-08-25T01:44:27.076Z,68.98
2018-08-25T01:45:06.080Z,68.60
2018-08-25T01:46:06.107Z,68.41
2018-08-25T01:47:06.121Z,68.60
2018-08-25T01:49:48.141Z,68.60
2018-08-25T01:51:09.168Z,68.60
2018-08-25T01:51:48.216Z,67.93
2018-08-25T01:52:48.198Z,67.83
2018-08-25T01:53:48.243Z,67.64
2018-08-25T01:54:48.261Z,68.41
2018-08-25T01:55:48.266Z,68.31
2018-08-25T01:57:09.301Z,68.41
2018-08-25T01:57:48.315Z,68.02
2018-08-25T01:58:48.321Z,67.45
2018-08-25T01:59:48.344Z,67.74
2018-08-25T02:00:48.370Z,67.74
2018-08-25T02:01:48.397Z,67.25
2018-08-25T02:03:10.195Z,66.87
2018-08-25T02:03:48.442Z,67.00
2018-08-25T02:04:48.452Z,67.07
2018-08-25T02:05:48.477Z,66.97
2018-08-25T02:06:48.503Z,67.54
2018-08-25T02:07:48.547Z,68.02
2018-08-25T02:09:09.552Z,67.74
2018-08-25T02:09:48.559Z,67.35
2018-08-25T02:10:48.643Z,67.16
2018-08-25T02:11:48.606Z,67.25
2018-08-25T02:12:48.627Z,66.81
2018-08-25T02:13:48.668Z,67.16
2018-08-25T02:15:09.689Z,67.16
2018-08-25T02:15:48.694Z,66.77
2018-08-25T02:16:48.714Z,66.68
2018-08-25T02:17:48.732Z,66.87
2018-08-25T02:18:48.781Z,67.00
2018-08-25T02:19:48.773Z,66.39
2018-08-25T02:21:09.824Z,66.61
2018-08-25T02:21:48.828Z,65.75
2018-08-25T02:22:48.838Z,65.91
2018-08-25T02:23:48.875Z,65.81
2018-08-25T02:24:48.884Z,66.10
2018-08-25T02:25:48.907Z,66.49
2018-08-25T02:27:09.945Z,66.49
2018-08-25T02:27:48.953Z,66.39
2018-08-25T02:28:48.974Z,66.49
2018-08-25T02:29:49.003Z,65.91
2018-08-25T02:30:49.028Z,66.58
2018-08-25T02:31:49.036Z,66.39
2018-08-25T02:33:10.709Z,66.93
2018-08-25T02:33:49.097Z,67.54
2018-08-25T02:34:49.097Z,68.21
2018-08-25T02:37:31.147Z,69.53
2018-08-25T02:38:31.208Z,69.81
2018-08-25T02:39:52.210Z,69.72
2018-08-25T02:40:31.236Z,70.01
2018-08-25T02:41:31.245Z,69.91
2018-08-25T02:42:31.263Z,71.51
2018-08-25T02:43:31.321Z,70.58
2018-08-25T02:44:31.306Z,70.97
2018-08-25T02:45:52.336Z,70.20
2018-08-25T02:46:31.340Z,70.29
2018-08-25T02:47:31.379Z,70.97
2018-08-25T02:48:31.382Z,71.61
2018-08-25T02:49:31.407Z,71.83
2018-08-25T02:50:31.436Z,70.58
2018-08-25T02:51:52.474Z,70.49
2018-08-25T02:52:31.474Z,71.35
2018-08-25T02:53:31.498Z,70.68
2018-08-25T02:54:31.520Z,70.68
2018-08-25T02:55:31.543Z,70.10
2018-08-25T02:56:31.560Z,70.20
2018-08-25T02:57:52.596Z,70.29
2018-08-25T02:58:31.612Z,70.39
2018-08-25T02:59:31.698Z,70.20
2018-08-25T03:00:31.646Z,70.39
2018-08-25T03:01:31.666Z,70.84
2018-08-25T03:02:31.685Z,70.68
2018-08-25T03:03:52.721Z,70.29
2018-08-25T03:04:31.734Z,70.29
2018-08-25T03:05:31.748Z,70.58
2018-08-25T03:06:31.773Z,70.58
2018-08-25T03:07:31.808Z,70.39
2018-08-25T03:08:31.848Z,70.39
2018-08-25T03:09:52.867Z,69.91
2018-08-25T03:10:31.981Z,70.29
2018-08-25T03:11:31.875Z,71.55
2018-08-25T03:12:31.903Z,70.78
2018-08-25T03:13:31.921Z,70.87
2018-08-25T03:14:31.951Z,70.20
2018-08-25T03:15:52.970Z,70.39
2018-08-25T03:18:14.365Z,71.51
2018-08-25T03:19:14.193Z,71.64
2018-08-25T03:20:14.205Z,71.83
2018-08-25T03:21:14.254Z,71.89
2018-08-25T03:22:35.456Z,72.28
2018-08-25T03:23:14.379Z,72.28
2018-08-25T03:24:14.300Z,73.33
2018-08-25T03:25:14.319Z,73.62
2018-08-25T03:26:14.347Z,73.43
2018-08-25T03:27:14.362Z,72.66
2018-08-25T03:28:35.394Z,72.31
2018-08-25T03:29:14.409Z,72.47
2018-08-25T03:30:14.432Z,72.18
2018-08-25T03:31:14.578Z,72.85
2018-08-25T03:32:14.466Z,72.75
2018-08-25T03:33:14.493Z,72.85
2018-08-25T03:34:35.536Z,72.75
2018-08-25T03:35:14.557Z,73.43
2018-08-25T03:36:14.575Z,72.89
2018-08-25T03:37:14.575Z,72.31
2018-08-25T03:38:14.605Z,72.99
2018-08-25T03:39:14.631Z,73.43
2018-08-25T03:40:35.661Z,73.46
2018-08-25T03:42:56.694Z,72.79
2018-08-25T03:43:56.697Z,72.02
2018-08-25T03:44:56.810Z,72.31
2018-08-25T03:45:56.738Z,72.69
2018-08-25T03:47:17.788Z,72.22
2018-08-25T03:47:56.804Z,72.22
2018-08-25T03:48:56.813Z,71.93
2018-08-25T03:49:56.823Z,71.73
2018-08-25T03:50:56.845Z,72.69
2018-08-25T03:51:56.863Z,72.50
2018-08-25T03:53:17.940Z,72.22
2018-08-25T03:53:56.907Z,72.41
2018-08-25T03:54:56.930Z,72.02
2018-08-25T03:55:56.966Z,72.89
2018-08-25T03:56:56.979Z,72.99
2018-08-25T03:57:57.041Z,72.31
2018-08-25T03:59:18.030Z,72.89
2018-08-25T03:59:57.037Z,72.69
2018-08-25T04:00:57.061Z,72.50
2018-08-25T04:01:57.085Z,72.69
2018-08-25T04:02:57.111Z,72.02
2018-08-25T04:03:57.118Z,72.12
2018-08-25T04:05:18.157Z,71.45
2018-08-25T04:05:57.162Z,71.67
2018-08-25T04:06:57.356Z,71.93
2018-08-25T04:07:57.205Z,71.48
2018-08-25T04:08:57.227Z,71.77
2018-08-25T04:09:57.250Z,71.39
2018-08-25T04:11:18.288Z,71.39
2018-08-25T04:11:57.295Z,71.55
2018-08-25T04:12:57.311Z,72.12
2018-08-25T04:13:57.349Z,71.64
2018-08-25T04:14:57.420Z,71.16
2018-08-25T04:15:57.387Z,71.35
2018-08-25T04:17:18.409Z,71.16
2018-08-25T04:17:57.423Z,70.87
2018-08-25T04:18:57.436Z,71.64
2018-08-25T04:19:57.524Z,72.12
2018-08-25T04:20:57.479Z,71.73
2018-08-25T04:21:57.506Z,71.64
2018-08-25T04:23:19.223Z,70.87
2018-08-25T04:23:57.554Z,71.35
2018-08-25T04:24:57.573Z,71.45
2018-08-25T04:25:57.585Z,71.45
2018-08-25T04:26:57.605Z,71.45
2018-08-25T04:27:57.635Z,70.29
2018-08-25T04:29:18.675Z,70.10
2018-08-25T04:29:57.670Z,71.73
2018-08-25T04:30:58.258Z,71.25
2018-08-25T04:31:57.708Z,71.16
2018-08-25T04:32:57.729Z,71.25
2018-08-25T04:33:57.793Z,71.16
2018-08-25T04:35:18.795Z,71.55
2018-08-25T04:37:39.747Z,71.06
2018-08-25T04:38:39.717Z,71.45
2018-08-25T04:39:39.746Z,71.89
2018-08-25T04:40:39.760Z,72.37
2018-08-25T04:42:00.797Z,72.95
2018-08-25T04:42:39.804Z,72.69
2018-08-25T04:43:39.833Z,72.12
2018-08-25T04:44:39.877Z,72.02
2018-08-25T04:45:39.858Z,72.41
2018-08-25T04:46:39.889Z,72.12
2018-08-25T04:48:00.934Z,71.83
2018-08-25T04:48:39.930Z,71.55
2018-08-25T04:49:39.953Z,71.64
2018-08-25T04:50:39.972Z,71.45
2018-08-25T04:51:39.996Z,72.69
2018-08-25T04:52:40.014Z,72.50
2018-08-25T04:54:01.062Z,72.31
2018-08-25T04:54:40.057Z,72.99
2018-08-25T04:55:40.074Z,72.79
2018-08-25T04:56:40.097Z,73.18
2018-08-25T04:57:40.114Z,72.60
2018-08-25T04:58:40.386Z,72.50
2018-08-25T05:00:01.202Z,72.69
2018-08-25T05:00:40.389Z,72.99
2018-08-25T05:01:40.391Z,72.41
2018-08-25T05:02:41.818Z,72.41
2018-08-25T05:03:40.252Z,72.22
2018-08-25T05:04:40.273Z,72.79
2018-08-25T05:06:01.311Z,72.89
2018-08-25T05:06:40.320Z,72.41
2018-08-25T05:07:40.380Z,72.22
2018-08-25T05:08:40.355Z,72.41
2018-08-25T05:09:40.379Z,73.24
2018-08-25T05:10:40.396Z,73.18
2018-08-25T05:12:01.433Z,73.46
2018-08-25T05:12:40.540Z,73.08
2018-08-25T05:13:40.668Z,72.41
2018-08-25T05:14:40.497Z,72.69
2018-08-25T05:15:40.504Z,73.46
2018-08-25T05:16:40.708Z,73.37
2018-08-25T05:18:01.566Z,73.27
2018-08-25T05:18:41.262Z,73.37
2018-08-25T05:19:40.582Z,72.50
2018-08-25T05:20:40.607Z,72.02
2018-08-25T05:21:40.714Z,72.22
2018-08-25T05:22:40.651Z,71.73
2018-08-25T05:24:01.691Z,71.45
2018-08-25T05:24:40.771Z,71.73
2018-08-25T05:25:40.716Z,71.55
2018-08-25T05:26:40.732Z,71.25
2018-08-25T05:27:41.420Z,71.55
2018-08-25T05:28:40.781Z,71.55
2018-08-25T05:30:01.821Z,72.12
2018-08-25T05:30:40.830Z,71.93
2018-08-25T05:31:40.851Z,71.73
2018-08-25T05:32:40.888Z,71.73
2018-08-25T05:33:40.885Z,71.73
2018-08-25T05:34:41.064Z,72.50
2018-08-25T05:36:01.971Z,72.69
2018-08-25T05:36:41.102Z,72.22
2018-08-25T05:37:41.111Z,71.55
2018-08-25T05:38:41.157Z,71.25
2018-08-25T05:39:41.204Z,71.64
2018-08-25T05:40:41.247Z,71.73
2018-08-25T05:42:02.073Z,71.73
2018-08-25T05:42:41.066Z,71.35
2018-08-25T05:43:41.118Z,72.08
2018-08-25T05:44:41.134Z,72.02
2018-08-25T05:45:41.245Z,71.55
2018-08-25T05:46:41.238Z,70.78
2018-08-25T05:48:02.754Z,70.49
2018-08-25T05:48:41.469Z,70.68
2018-08-25T05:49:41.384Z,70.87
2018-08-25T05:50:41.409Z,71.06
2018-08-25T05:51:41.395Z,70.29
2018-08-25T05:52:41.486Z,70.87
2018-08-25T05:54:02.313Z,70.78
2018-08-25T05:54:41.335Z,71.35
2018-08-25T05:55:41.337Z,70.97
2018-08-25T05:56:41.362Z,71.55
2018-08-25T05:57:41.383Z,71.06
2018-08-25T05:58:41.435Z,70.58
2018-08-25T06:00:02.603Z,70.49
2018-08-25T06:00:41.497Z,70.20
2018-08-25T06:01:41.460Z,70.29
2018-08-25T06:02:41.534Z,70.01
2018-08-25T06:03:41.763Z,70.20
2018-08-25T06:04:41.572Z,70.49
2018-08-25T06:06:02.565Z,70.78
2018-08-25T06:08:23.741Z,70.58
2018-08-25T06:09:23.754Z,70.68
2018-08-25T06:10:23.775Z,70.29
2018-08-25T06:11:23.796Z,70.49
2018-08-25T06:12:44.834Z,70.58
2018-08-25T06:13:23.941Z,70.97
2018-08-25T06:14:23.894Z,71.55
2018-08-25T06:15:23.881Z,71.73
2018-08-25T06:16:23.910Z,70.97
2018-08-25T06:17:24.847Z,71.22
2018-08-25T06:18:45.002Z,71.55
2018-08-25T06:19:23.967Z,71.73
2018-08-25T06:20:23.989Z,71.55
2018-08-25T06:21:24.002Z,71.89
2018-08-25T06:22:24.044Z,71.45
2018-08-25T06:23:24.075Z,71.45
2018-08-25T06:24:45.787Z,72.02
2018-08-25T06:25:24.176Z,72.79
2018-08-25T06:26:24.113Z,72.69
2018-08-25T06:27:24.122Z,72.66
2018-08-25T06:28:24.146Z,72.60
2018-08-25T06:29:24.190Z,72.75
2018-08-25T06:30:45.206Z,72.60
2018-08-25T06:31:24.228Z,72.02
2018-08-25T06:32:24.232Z,72.02
2018-08-25T06:33:24.257Z,72.66
2018-08-25T06:34:24.285Z,72.31
2018-08-25T06:35:24.307Z,72.50
2018-08-25T06:36:45.344Z,72.89
2018-08-25T06:37:24.354Z,72.60
2018-08-25T06:38:24.381Z,72.22
2018-08-25T06:39:24.387Z,72.79
2018-08-25T06:40:24.412Z,72.69
2018-08-25T06:41:24.428Z,72.89
2018-08-25T06:42:45.471Z,73.18
2018-08-25T06:43:24.519Z,72.89
2018-08-25T06:44:24.483Z,73.56
2018-08-25T06:45:24.513Z,72.89
2018-08-25T06:46:24.570Z,73.08
2018-08-25T06:47:24.608Z,73.46
2018-08-25T06:48:45.678Z,72.79
2018-08-25T06:49:24.613Z,73.18
2018-08-25T06:50:24.610Z,73.75
2018-08-25T06:51:24.649Z,74.52
2018-08-25T06:52:24.661Z,73.85
2018-08-25T06:53:24.808Z,73.94
2018-08-25T06:54:45.719Z,74.23
2018-08-25T06:55:24.719Z,75.06
2018-08-25T06:56:24.735Z,74.96
2018-08-25T06:57:24.765Z,75.29
2018-08-25T06:58:24.839Z,74.33
2018-08-25T06:59:25.342Z,74.71
2018-08-25T07:00:45.847Z,75.45
2018-08-25T07:01:24.857Z,75.25
2018-08-25T07:02:24.886Z,75.63
2018-08-25T07:03:24.879Z,75.06
2018-08-25T07:04:24.923Z,74.68
2018-08-25T07:05:24.951Z,75.25
2018-08-25T07:06:45.970Z,75.06
2018-08-25T07:07:24.979Z,75.10
2018-08-25T07:08:24.999Z,74.90
2018-08-25T07:09:25.011Z,74.23
2018-08-25T07:10:25.029Z,75.10
2018-08-25T07:11:25.066Z,75.63
2018-08-25T07:12:46.218Z,75.73
2018-08-25T07:13:25.097Z,75.45
2018-08-25T07:14:25.832Z,75.82
2018-08-25T07:15:25.869Z,75.10
2018-08-25T07:16:25.150Z,74.90
2018-08-25T07:17:25.177Z,76.15
2018-08-25T07:18:46.233Z,76.31
2018-08-25T07:19:25.218Z,76.31
2018-08-25T07:20:25.241Z,76.69
2018-08-25T07:21:25.262Z,77.26
2018-08-25T07:22:25.287Z,76.82
2018-08-25T07:23:25.309Z,76.69
2018-08-25T07:24:47.320Z,76.12
2018-08-25T07:25:25.356Z,76.69
2018-08-25T07:26:25.399Z,75.82
2018-08-25T07:27:25.436Z,76.15
2018-08-25T07:30:07.789Z,77.65
2018-08-25T07:31:28.821Z,76.69
2018-08-25T07:32:07.882Z,75.87
2018-08-25T07:33:07.845Z,75.67
2018-08-25T07:34:07.852Z,76.21
2018-08-25T07:35:07.866Z,76.06
2018-08-25T07:36:07.890Z,76.06
2018-08-25T07:37:28.941Z,76.50
2018-08-25T07:38:07.937Z,77.31
2018-08-25T07:39:08.004Z,77.56
2018-08-25T07:40:07.982Z,76.73
2018-08-25T07:41:07.987Z,75.77
2018-08-25T07:42:08.020Z,75.38
2018-08-25T07:43:29.085Z,75.96
2018-08-25T07:44:08.123Z,76.31
2018-08-25T07:45:08.920Z,77.08
2018-08-25T07:46:08.108Z,77.36
2018-08-25T07:47:08.122Z,77.50
2018-08-25T07:48:08.149Z,77.01
2018-08-25T07:49:29.193Z,77.31
2018-08-25T07:50:08.800Z,75.57
2018-08-25T07:51:08.207Z,75.82
2018-08-25T07:52:08.230Z,76.79
2018-08-25T07:53:08.246Z,78.23
2018-08-25T07:54:08.266Z,77.17
2018-08-25T07:55:29.343Z,77.84
2018-08-25T07:56:08.319Z,77.08
2018-08-25T07:57:08.853Z,75.45
2018-08-25T07:58:08.344Z,75.82
2018-08-25T07:59:08.392Z,76.12
2018-08-25T08:00:08.399Z,75.45
2018-08-25T08:01:29.423Z,75.63
2018-08-25T08:02:08.434Z,75.54
2018-08-25T08:03:08.455Z,74.58
2018-08-25T08:04:08.519Z,74.10
2018-08-25T08:05:08.552Z,75.06
2018-08-25T08:06:08.545Z,76.31
2018-08-25T08:07:29.570Z,75.25
2018-08-25T08:08:08.556Z,75.63
2018-08-25T08:09:08.612Z,75.70
2018-08-25T08:10:08.601Z,75.54
2018-08-25T08:11:08.617Z,74.77
2018-08-25T08:12:08.693Z,74.10
2018-08-25T08:13:29.685Z,74.39
2018-08-25T08:14:08.722Z,74.58
2018-08-25T08:15:08.716Z,74.96
2018-08-25T08:16:08.765Z,75.63
2018-08-25T08:17:08.746Z,76.02
2018-08-25T08:18:08.853Z,75.82
2018-08-25T08:19:29.895Z,75.06
2018-08-25T08:20:08.809Z,75.54
2018-08-25T08:21:08.819Z,74.96
2018-08-25T08:22:08.864Z,75.15
2018-08-25T08:23:08.881Z,76.21
2018-08-25T08:24:08.887Z,76.12
2018-08-25T08:25:29.941Z,76.59
2018-08-25T08:26:08.940Z,75.73
2018-08-25T08:27:08.998Z,75.15
2018-08-25T08:28:09.813Z,76.02
2018-08-25T08:29:09.089Z,75.35
2018-08-25T08:30:09.031Z,75.06
2018-08-25T08:31:30.053Z,74.58
2018-08-25T08:32:09.091Z,75.06
2018-08-25T08:33:09.198Z,76.46
2018-08-25T08:34:09.103Z,76.40
2018-08-25T08:35:09.128Z,76.40
2018-08-25T08:36:09.157Z,76.79
2018-08-25T08:37:30.205Z,77.33
2018-08-25T08:38:09.189Z,77.08
2018-08-25T08:39:09.238Z,76.40
2018-08-25T08:40:09.254Z,75.92
2018-08-25T08:41:09.340Z,76.50
2018-08-25T08:42:09.295Z,77.46
2018-08-25T08:43:30.302Z,77.36
2018-08-25T08:44:09.312Z,78.13
2018-08-25T08:45:09.333Z,78.23
2018-08-25T08:46:09.413Z,77.17
2018-08-25T08:47:09.393Z,77.65
2018-08-25T08:48:09.414Z,76.98
2018-08-25T08:49:30.429Z,77.17
2018-08-25T08:50:09.440Z,77.17
2018-08-25T08:51:09.483Z,76.69
2018-08-25T08:52:10.358Z,77.56
2018-08-25T08:53:09.491Z,78.96
2018-08-25T08:54:09.544Z,79.05
2018-08-25T08:55:30.628Z,78.32
2018-08-25T08:56:09.578Z,78.52
2018-08-25T08:57:09.579Z,78.99
2018-08-25T08:58:09.650Z,79.19
2018-08-25T08:59:09.616Z,78.23
2018-08-25T09:00:09.645Z,78.42
2018-08-25T09:01:30.755Z,79.67
2018-08-25T09:02:09.706Z,80.20
2018-08-25T09:03:09.718Z,78.77
2018-08-25T09:04:09.720Z,78.86
2018-08-25T09:05:09.744Z,79.09
2018-08-25T09:06:09.870Z,78.32
2018-08-25T09:07:30.864Z,78.42
2018-08-25T09:08:09.895Z,78.47
2018-08-25T09:09:09.833Z,79.38
2018-08-25T09:10:09.998Z,79.19
2018-08-25T09:11:09.860Z,79.38
2018-08-25T09:12:09.898Z,78.80
2018-08-25T09:13:30.940Z,78.80
2018-08-25T09:14:09.934Z,78.90
2018-08-25T09:15:09.963Z,79.67
2018-08-25T09:16:10.016Z,80.43
2018-08-25T09:17:10.015Z,79.47
2018-08-25T09:18:10.024Z,80.43
2018-08-25T09:19:31.123Z,81.20
2018-08-25T09:20:10.076Z,81.59
2018-08-25T09:21:10.207Z,81.45
2018-08-25T09:22:10.093Z,81.45
2018-08-25T09:23:10.122Z,80.53
2018-08-25T09:24:10.138Z,80.53
2018-08-25T09:25:31.229Z,80.97
2018-08-25T09:26:10.193Z,82.21
2018-08-25T09:27:10.203Z,81.93
2018-08-25T09:28:10.225Z,82.79
2018-08-25T09:29:10.237Z,82.70
2018-08-25T09:30:10.253Z,82.70
2018-08-25T09:31:31.308Z,81.59
2018-08-25T09:32:10.309Z,82.16
2018-08-25T09:33:10.348Z,82.45
2018-08-25T09:34:10.339Z,83.27
2018-08-25T09:35:10.375Z,82.21
2018-08-25T09:36:10.413Z,82.79
2018-08-25T09:37:31.437Z,81.45
2018-08-25T09:38:10.461Z,80.53
2018-08-25T09:39:10.445Z,80.91
2018-08-25T09:40:10.487Z,80.78
2018-08-25T09:41:10.502Z,82.89
2018-08-25T09:42:10.513Z,82.41
2018-08-25T09:43:31.566Z,80.97
2018-08-25T09:44:10.590Z,81.54
2018-08-25T09:45:10.684Z,81.26
2018-08-25T09:46:10.663Z,80.40
2018-08-25T09:47:10.691Z,81.35
2018-08-25T09:48:10.651Z,82.79
2018-08-25T09:49:31.673Z,82.70
2018-08-25T09:50:10.679Z,82.79
2018-08-25T09:51:10.704Z,83.94
2018-08-25T09:52:10.731Z,83.18
2018-08-25T09:53:10.752Z,82.31
2018-08-25T09:54:10.804Z,81.93
2018-08-25T09:55:31.793Z,82.70
2018-08-25T09:56:10.861Z,81.93
2018-08-25T09:57:10.819Z,81.64
2018-08-25T09:58:10.841Z,83.37
2018-08-25T09:59:10.857Z,83.18
2018-08-25T10:00:10.904Z,82.12
2018-08-25T10:01:31.955Z,83.65
2018-08-25T10:02:10.926Z,84.52
2018-08-25T10:03:10.959Z,84.42
2018-08-25T10:04:10.963Z,84.81
2018-08-25T10:05:11.914Z,85.00
2018-08-25T10:06:11.003Z,84.23
2018-08-25T10:07:32.052Z,84.37
2018-08-25T10:08:11.057Z,84.42
2018-08-25T10:09:11.091Z,85.28
2018-08-25T10:10:11.090Z,85.96
2018-08-25T10:11:11.105Z,85.48
2018-08-25T10:12:11.118Z,84.71
2018-08-25T10:13:32.181Z,84.14
2018-08-25T10:14:11.178Z,84.91
2018-08-25T10:15:11.203Z,85.48
2018-08-25T10:16:11.215Z,85.96
2018-08-25T10:17:11.258Z,85.58
2018-08-25T10:18:11.258Z,85.96
2018-08-25T10:19:32.334Z,85.77
2018-08-25T10:20:11.312Z,86.21
2018-08-25T10:21:11.366Z,85.96
2018-08-25T10:22:11.348Z,84.52
2018-08-25T10:23:11.354Z,84.23
2018-08-25T10:24:11.524Z,84.04
2018-08-25T10:25:32.454Z,84.52
2018-08-25T10:26:11.414Z,84.71
2018-08-25T10:27:11.450Z,85.96
2018-08-25T10:28:11.457Z,85.77
2018-08-25T10:29:11.482Z,87.11
2018-08-25T10:30:11.494Z,86.40
2018-08-25T10:31:32.552Z,86.34
2018-08-25T10:32:11.554Z,85.10
2018-08-25T10:33:11.566Z,84.71
2018-08-25T10:34:11.590Z,85.19
2018-08-25T10:35:11.630Z,85.38
2018-08-25T10:36:11.619Z,85.58
2018-08-25T10:37:32.785Z,86.05
2018-08-25T10:38:11.668Z,85.96
2018-08-25T10:39:11.684Z,86.05
2018-08-25T10:40:11.752Z,85.19
2018-08-25T10:41:11.736Z,85.58
2018-08-25T10:42:11.803Z,86.88
2018-08-25T10:43:32.800Z,85.77
2018-08-25T10:44:11.782Z,85.77
2018-08-25T10:45:11.815Z,85.48
2018-08-25T10:46:11.861Z,85.48
2018-08-25T10:47:11.844Z,85.63
2018-08-25T10:48:12.035Z,86.68
2018-08-25T10:49:32.916Z,86.30
2018-08-25T10:50:11.907Z,86.05
2018-08-25T10:51:11.933Z,84.91
2018-08-25T10:52:11.951Z,84.14
2018-08-25T10:53:11.989Z,84.33
2018-08-25T10:54:12.001Z,84.33
2018-08-25T10:55:33.029Z,85.28
2018-08-25T10:56:12.027Z,86.54
2018-08-25T10:57:12.057Z,86.25
2018-08-25T10:58:12.065Z,85.86
2018-08-25T10:59:12.109Z,85.96
2018-08-25T11:00:12.135Z,86.05
2018-08-25T11:01:33.164Z,84.61
2018-08-25T11:02:12.896Z,84.33
2018-08-25T11:03:12.194Z,84.61
2018-08-25T11:04:12.221Z,85.96
2018-08-25T11:05:12.277Z,85.38
2018-08-25T11:06:12.240Z,84.52
2018-08-25T11:07:33.290Z,83.65
2018-08-25T11:08:12.272Z,83.65
2018-08-25T11:09:12.296Z,84.14
2018-08-25T11:10:12.328Z,84.81
2018-08-25T11:11:12.386Z,84.33
2018-08-25T11:12:12.369Z,84.23
2018-08-25T11:13:33.411Z,83.75
2018-08-25T11:14:12.410Z,82.89
2018-08-25T11:15:13.422Z,82.84
2018-08-25T11:16:12.484Z,83.56
2018-08-25T11:17:13.373Z,83.41
2018-08-25T11:18:12.508Z,83.12
2018-08-25T11:19:33.514Z,83.03
2018-08-25T11:20:12.544Z,84.66
2018-08-25T11:21:12.560Z,84.91
2018-08-25T11:22:12.570Z,83.27
2018-08-25T11:23:12.595Z,82.51
2018-08-25T11:24:12.634Z,81.84
2018-08-25T11:25:33.643Z,82.21
2018-08-25T11:26:12.671Z,79.76
2018-08-25T11:27:12.740Z,80.49
2018-08-25T11:28:13.404Z,80.53
2018-08-25T11:29:12.765Z,81.16
2018-08-25T11:30:12.737Z,81.16
2018-08-25T11:31:33.770Z,82.12
2018-08-25T11:32:12.782Z,81.93
2018-08-25T11:33:13.418Z,82.70
2018-08-25T11:34:12.817Z,82.79
2018-08-25T11:35:12.843Z,84.33
2018-08-25T11:36:12.929Z,83.47
2018-08-25T11:37:33.935Z,83.37
2018-08-25T11:38:12.963Z,83.47
2018-08-25T11:39:12.911Z,84.33
2018-08-25T11:40:12.949Z,84.61
2018-08-25T11:41:12.968Z,83.47
2018-08-25T11:42:13.006Z,82.35
2018-08-25T11:43:34.882Z,82.60
2018-08-25T11:44:13.022Z,82.26
2018-08-25T11:45:13.054Z,82.93
2018-08-25T11:46:13.062Z,82.74
2018-08-25T11:47:13.109Z,83.22
2018-08-25T11:48:13.174Z,82.93
2018-08-25T11:49:34.151Z,82.93
2018-08-25T11:50:13.162Z,84.91
2018-08-25T11:51:13.270Z,86.15
2018-08-25T11:52:13.178Z,86.82
2018-08-25T11:53:13.224Z,85.19
2018-08-25T11:54:13.241Z,84.91
2018-08-25T11:55:34.270Z,85.38
2018-08-25T11:56:13.266Z,85.86
2018-08-25T11:57:13.300Z,84.42
2018-08-25T11:58:13.309Z,84.91
2018-08-25T11:59:13.370Z,86.15
2018-08-25T12:00:13.382Z,86.72
2018-08-25T12:01:34.379Z,87.01
2018-08-25T12:02:13.455Z,87.11
2018-08-25T12:03:13.414Z,87.11
2018-08-25T12:04:13.428Z,87.01
2018-08-25T12:05:13.483Z,87.49
2018-08-25T12:06:13.484Z,88.35
2018-08-25T12:07:34.508Z,88.26
2018-08-25T12:08:13.564Z,87.30
2018-08-25T12:09:13.552Z,87.78
2018-08-25T12:10:13.552Z,87.30
2018-08-25T12:11:13.589Z,87.49
2018-08-25T12:12:13.601Z,87.30
2018-08-25T12:13:34.657Z,87.01
2018-08-25T12:14:13.674Z,86.92
2018-08-25T12:15:13.673Z,87.59
2018-08-25T12:16:13.734Z,87.11
2018-08-25T12:17:13.701Z,86.72
2018-08-25T12:18:13.719Z,87.11
2018-08-25T12:19:34.763Z,85.48
2018-08-25T12:20:13.781Z,84.52
2018-08-25T12:21:13.786Z,84.04
2018-08-25T12:22:13.832Z,84.33
2018-08-25T12:23:13.831Z,85.19
2018-08-25T12:24:13.913Z,83.47
2018-08-25T12:25:34.902Z,82.21
2018-08-25T12:26:13.908Z,82.12
2018-08-25T12:27:13.904Z,82.70
2018-08-25T12:28:13.926Z,83.65
2018-08-25T12:29:13.942Z,83.75
2018-08-25T12:30:14.048Z,83.37
2018-08-25T12:31:35.030Z,84.14
2018-08-25T12:32:14.020Z,85.00
2018-08-25T12:33:14.046Z,84.33
2018-08-25T12:34:14.057Z,83.60
2018-08-25T12:35:14.080Z,82.93
2018-08-25T12:36:14.159Z,84.52
2018-08-25T12:37:35.175Z,84.61
2018-08-25T12:38:14.399Z,83.12
2018-08-25T12:39:15.017Z,83.12
2018-08-25T12:40:14.177Z,82.51
2018-08-25T12:41:14.196Z,83.80
2018-08-25T12:42:14.218Z,84.91
2018-08-25T12:43:35.285Z,85.33
2018-08-25T12:44:14.266Z,84.08
2018-08-25T12:45:14.363Z,82.26
2018-08-25T12:46:14.317Z,81.87
2018-08-25T12:47:14.323Z,81.97
2018-08-25T12:48:14.345Z,81.10
2018-08-25T12:49:35.945Z,82.07
2018-08-25T12:50:14.907Z,82.16
2018-08-25T12:51:14.405Z,82.98
2018-08-25T12:52:14.444Z,83.89
2018-08-25T12:53:14.459Z,82.84
2018-08-25T12:54:14.606Z,82.26
2018-08-25T12:55:35.572Z,83.22
2018-08-25T12:56:14.510Z,82.84
2018-08-25T12:57:14.534Z,82.21
2018-08-25T12:58:14.558Z,81.78
2018-08-25T12:59:15.485Z,80.91
2018-08-25T13:00:14.602Z,80.82
2018-08-25T13:01:35.650Z,80.30
2018-08-25T13:02:14.648Z,79.86
2018-08-25T13:03:14.663Z,79.76
2018-08-25T13:04:14.726Z,80.73